sensor_id;sensor_type;location;lat;lon;timestamp;pressure;altitude;pressure_sealevel;temperature;humidity
16525;BME280;8375;33.594;-117.718;2023-04-07T00:00:08;100239.63;;;22.25;20.91
16525;BME280;8375;33.594;-117.718;2023-04-07T00:02:37;100237.16;;;22.23;21.65
16525;BME280;8375;33.594;-117.718;2023-04-07T00:05:08;100230.22;;;22.16;22.19
16525;BME280;8375;33.594;-117.718;2023-04-07T00:07:36;100229.44;;;22.22;22.34
16525;BME280;8375;33.594;-117.718;2023-04-07T00:10:06;100233.09;;;22.21;20.76
16525;BME280;8375;33.594;-117.718;2023-04-07T00:12:35;100233.00;;;22.07;20.21
16525;BME280;8375;33.594;-117.718;2023-04-07T00:15:04;100236.38;;;21.94;22.10
16525;BME280;8375;33.594;-117.718;2023-04-07T00:17:33;100231.19;;;21.79;21.05
16525;BME280;8375;33.594;-117.718;2023-04-07T00:20:03;100235.59;;;21.72;20.97
16525;BME280;8375;33.594;-117.718;2023-04-07T00:22:34;100238.91;;;21.59;21.17
16525;BME280;8375;33.594;-117.718;2023-04-07T00:25:02;100246.97;;;21.73;22.66
16525;BME280;8375;33.594;-117.718;2023-04-07T00:27:31;100247.56;;;21.68;23.35
16525;BME280;8375;33.594;-117.718;2023-04-07T00:30:01;100248.03;;;21.57;21.44
16525;BME280;8375;33.594;-117.718;2023-04-07T00:32:30;100247.19;;;21.56;21.72
16525;BME280;8375;33.594;-117.718;2023-04-07T00:34:58;100248.53;;;21.45;22.17
16525;BME280;8375;33.594;-117.718;2023-04-07T00:37:27;100251.09;;;21.38;21.95
16525;BME280;8375;33.594;-117.718;2023-04-07T00:39:57;100258.88;;;21.25;23.16
16525;BME280;8375;33.594;-117.718;2023-04-07T00:42:26;100263.16;;;21.26;23.52
16525;BME280;8375;33.594;-117.718;2023-04-07T00:44:55;100256.53;;;21.15;23.10
16525;BME280;8375;33.594;-117.718;2023-04-07T00:47:23;100254.09;;;21.14;23.14
16525;BME280;8375;33.594;-117.718;2023-04-07T00:49:52;100258.75;;;20.96;21.90
16525;BME280;8375;33.594;-117.718;2023-04-07T00:52:21;100262.16;;;20.75;23.05
16525;BME280;8375;33.594;-117.718;2023-04-07T00:54:56;100270.97;;;20.67;24.21
16525;BME280;8375;33.594;-117.718;2023-04-07T00:57:25;100263.50;;;20.56;24.55
16525;BME280;8375;33.594;-117.718;2023-04-07T00:59:54;100267.88;;;20.49;24.17
16525;BME280;8375;33.594;-117.718;2023-04-07T01:02:29;100268.88;;;20.48;26.69
16525;BME280;8375;33.594;-117.718;2023-04-07T01:05:08;100275.16;;;20.47;25.31
16525;BME280;8375;33.594;-117.718;2023-04-07T01:07:43;100274.97;;;20.33;26.69
16525;BME280;8375;33.594;-117.718;2023-04-07T01:10:22;100280.16;;;20.42;28.90
16525;BME280;8375;33.594;-117.718;2023-04-07T01:13:02;100281.97;;;20.41;26.68
16525;BME280;8375;33.594;-117.718;2023-04-07T01:15:33;100279.22;;;20.34;28.23
16525;BME280;8375;33.594;-117.718;2023-04-07T01:18:09;100277.88;;;20.23;25.45
16525;BME280;8375;33.594;-117.718;2023-04-07T01:20:43;100283.75;;;20.11;25.68
16525;BME280;8375;33.594;-117.718;2023-04-07T01:23:20;100285.22;;;19.90;26.33
16525;BME280;8375;33.594;-117.718;2023-04-07T01:26:14;100284.22;;;19.68;26.27
16525;BME280;8375;33.594;-117.718;2023-04-07T01:31:36;100279.41;;;19.71;26.90
16525;BME280;8375;33.594;-117.718;2023-04-07T01:34:09;100277.28;;;19.75;28.24
16525;BME280;8375;33.594;-117.718;2023-04-07T01:36:38;100272.06;;;19.67;29.37
16525;BME280;8375;33.594;-117.718;2023-04-07T01:39:07;100283.72;;;19.49;27.00
16525;BME280;8375;33.594;-117.718;2023-04-07T01:41:37;100275.88;;;19.41;26.81
16525;BME280;8375;33.594;-117.718;2023-04-07T01:44:07;100283.31;;;19.29;28.54
16525;BME280;8375;33.594;-117.718;2023-04-07T01:46:38;100279.09;;;19.19;28.00
16525;BME280;8375;33.594;-117.718;2023-04-07T01:49:07;100286.38;;;19.09;27.19
16525;BME280;8375;33.594;-117.718;2023-04-07T01:51:36;100291.34;;;19.04;29.63
16525;BME280;8375;33.594;-117.718;2023-04-07T01:54:06;100291.22;;;18.89;28.55
16525;BME280;8375;33.594;-117.718;2023-04-07T01:56:35;100294.06;;;18.71;28.73
16525;BME280;8375;33.594;-117.718;2023-04-07T01:59:03;100294.09;;;18.62;30.56
16525;BME280;8375;33.594;-117.718;2023-04-07T02:01:32;100292.47;;;18.53;29.87
16525;BME280;8375;33.594;-117.718;2023-04-07T02:04:06;100289.34;;;18.41;28.81
16525;BME280;8375;33.594;-117.718;2023-04-07T02:06:42;100288.38;;;18.34;31.88
16525;BME280;8375;33.594;-117.718;2023-04-07T02:09:14;100288.59;;;18.24;30.46
16525;BME280;8375;33.594;-117.718;2023-04-07T02:11:45;100280.06;;;18.14;32.00
16525;BME280;8375;33.594;-117.718;2023-04-07T02:14:14;100285.00;;;18.00;30.99
16525;BME280;8375;33.594;-117.718;2023-04-07T02:16:43;100281.16;;;17.95;34.49
16525;BME280;8375;33.594;-117.718;2023-04-07T02:19:15;100279.19;;;17.80;29.82
16525;BME280;8375;33.594;-117.718;2023-04-07T02:21:45;100263.75;;;17.60;29.49
16525;BME280;8375;33.594;-117.718;2023-04-07T02:24:17;100279.78;;;17.33;29.86
16525;BME280;8375;33.594;-117.718;2023-04-07T02:26:46;100282.53;;;17.14;30.05
16525;BME280;8375;33.594;-117.718;2023-04-07T02:29:15;100281.44;;;16.91;29.15
16525;BME280;8375;33.594;-117.718;2023-04-07T02:31:44;100283.84;;;16.84;29.53
16525;BME280;8375;33.594;-117.718;2023-04-07T02:34:14;100278.53;;;16.67;30.30
16525;BME280;8375;33.594;-117.718;2023-04-07T02:36:43;100281.38;;;16.74;32.50
16525;BME280;8375;33.594;-117.718;2023-04-07T02:39:11;100285.59;;;16.67;32.23
16525;BME280;8375;33.594;-117.718;2023-04-07T02:41:40;100285.59;;;16.67;32.14
16525;BME280;8375;33.594;-117.718;2023-04-07T02:44:09;100282.13;;;16.66;33.37
16525;BME280;8375;33.594;-117.718;2023-04-07T02:46:37;100280.41;;;16.49;31.38
16525;BME280;8375;33.594;-117.718;2023-04-07T02:49:07;100283.19;;;16.47;32.83
16525;BME280;8375;33.594;-117.718;2023-04-07T02:51:37;100284.97;;;16.47;32.59
16525;BME280;8375;33.594;-117.718;2023-04-07T02:54:06;100285.63;;;16.49;34.36
16525;BME280;8375;33.594;-117.718;2023-04-07T02:56:34;100295.16;;;16.50;33.70
16525;BME280;8375;33.594;-117.718;2023-04-07T02:59:03;100298.06;;;16.47;32.22
16525;BME280;8375;33.594;-117.718;2023-04-07T03:01:32;100300.44;;;16.32;32.75
16525;BME280;8375;33.594;-117.718;2023-04-07T03:04:01;100294.84;;;16.26;33.00
16525;BME280;8375;33.594;-117.718;2023-04-07T03:06:30;100295.09;;;16.15;33.44
16525;BME280;8375;33.594;-117.718;2023-04-07T03:09:00;100295.16;;;16.05;33.26
16525;BME280;8375;33.594;-117.718;2023-04-07T03:11:29;100300.25;;;16.07;34.41
16525;BME280;8375;33.594;-117.718;2023-04-07T03:13:57;100307.75;;;16.02;34.75
16525;BME280;8375;33.594;-117.718;2023-04-07T03:16:26;100307.06;;;16.00;33.87
16525;BME280;8375;33.594;-117.718;2023-04-07T03:18:55;100310.13;;;15.95;34.23
16525;BME280;8375;33.594;-117.718;2023-04-07T03:21:23;100313.44;;;15.97;34.03
16525;BME280;8375;33.594;-117.718;2023-04-07T03:23:54;100306.91;;;16.01;35.81
16525;BME280;8375;33.594;-117.718;2023-04-07T03:26:24;100312.16;;;16.01;35.80
16525;BME280;8375;33.594;-117.718;2023-04-07T03:28:53;100312.63;;;15.96;33.14
16525;BME280;8375;33.594;-117.718;2023-04-07T03:31:21;100317.34;;;15.83;31.89
16525;BME280;8375;33.594;-117.718;2023-04-07T03:33:50;100312.72;;;15.77;31.72
16525;BME280;8375;33.594;-117.718;2023-04-07T03:36:19;100327.34;;;15.69;32.42
16525;BME280;8375;33.594;-117.718;2023-04-07T03:38:47;100330.66;;;15.72;33.23
16525;BME280;8375;33.594;-117.718;2023-04-07T03:41:16;100330.44;;;15.65;32.14
16525;BME280;8375;33.594;-117.718;2023-04-07T03:43:47;100331.84;;;15.59;30.87
16525;BME280;8375;33.594;-117.718;2023-04-07T03:46:15;100335.41;;;15.58;31.46
16525;BME280;8375;33.594;-117.718;2023-04-07T03:48:44;100344.44;;;15.46;31.43
16525;BME280;8375;33.594;-117.718;2023-04-07T03:51:13;100339.22;;;15.46;31.74
16525;BME280;8375;33.594;-117.718;2023-04-07T03:53:41;100348.09;;;15.35;31.21
16525;BME280;8375;33.594;-117.718;2023-04-07T03:56:10;100346.00;;;15.38;31.48
16525;BME280;8375;33.594;-117.718;2023-04-07T03:58:39;100347.72;;;15.30;31.27
16525;BME280;8375;33.594;-117.718;2023-04-07T04:01:09;100356.53;;;15.29;32.50
16525;BME280;8375;33.594;-117.718;2023-04-07T04:03:38;100356.66;;;15.27;34.19
16525;BME280;8375;33.594;-117.718;2023-04-07T04:06:07;100360.91;;;15.28;31.73
16525;BME280;8375;33.594;-117.718;2023-04-07T04:08:36;100367.28;;;15.25;31.82
16525;BME280;8375;33.594;-117.718;2023-04-07T04:11:04;100369.34;;;15.22;32.63
16525;BME280;8375;33.594;-117.718;2023-04-07T04:13:33;100374.56;;;15.22;35.28
16525;BME280;8375;33.594;-117.718;2023-04-07T04:16:02;100376.38;;;15.21;35.79
16525;BME280;8375;33.594;-117.718;2023-04-07T04:18:32;100376.41;;;15.11;33.54
16525;BME280;8375;33.594;-117.718;2023-04-07T04:21:01;100385.66;;;15.06;33.67
16525;BME280;8375;33.594;-117.718;2023-04-07T04:23:29;100381.50;;;15.03;34.04
16525;BME280;8375;33.594;-117.718;2023-04-07T04:25:58;100384.13;;;15.03;33.47
16525;BME280;8375;33.594;-117.718;2023-04-07T04:28:29;100394.47;;;14.95;34.99
16525;BME280;8375;33.594;-117.718;2023-04-07T04:30:58;100387.47;;;14.86;34.56
16525;BME280;8375;33.594;-117.718;2023-04-07T04:33:26;100390.13;;;14.76;35.33
16525;BME280;8375;33.594;-117.718;2023-04-07T04:35:57;100384.75;;;14.67;36.16
16525;BME280;8375;33.594;-117.718;2023-04-07T04:38:25;100389.84;;;14.59;37.21
16525;BME280;8375;33.594;-117.718;2023-04-07T04:40:54;100391.91;;;14.56;37.16
16525;BME280;8375;33.594;-117.718;2023-04-07T04:43:23;100392.47;;;14.49;35.98
16525;BME280;8375;33.594;-117.718;2023-04-07T04:45:51;100397.56;;;14.51;41.22
16525;BME280;8375;33.594;-117.718;2023-04-07T04:48:21;100394.38;;;14.47;37.73
16525;BME280;8375;33.594;-117.718;2023-04-07T04:50:50;100394.94;;;14.41;39.70
16525;BME280;8375;33.594;-117.718;2023-04-07T04:53:20;100388.91;;;14.31;37.63
16525;BME280;8375;33.594;-117.718;2023-04-07T04:55:49;100388.22;;;14.19;37.41
16525;BME280;8375;33.594;-117.718;2023-04-07T04:58:19;100393.97;;;14.03;37.19
16525;BME280;8375;33.594;-117.718;2023-04-07T05:00:47;100392.72;;;13.87;37.10
16525;BME280;8375;33.594;-117.718;2023-04-07T05:03:16;100397.50;;;13.82;38.05
16525;BME280;8375;33.594;-117.718;2023-04-07T05:05:48;100392.28;;;13.72;38.97
16525;BME280;8375;33.594;-117.718;2023-04-07T05:08:16;100386.91;;;13.64;38.37
16525;BME280;8375;33.594;-117.718;2023-04-07T05:10:47;100398.84;;;13.57;38.96
16525;BME280;8375;33.594;-117.718;2023-04-07T05:13:16;100405.81;;;13.46;39.39
16525;BME280;8375;33.594;-117.718;2023-04-07T05:15:45;100402.16;;;13.38;39.65
16525;BME280;8375;33.594;-117.718;2023-04-07T05:18:13;100392.94;;;13.33;40.38
16525;BME280;8375;33.594;-117.718;2023-04-07T05:20:42;100393.84;;;13.23;39.91
16525;BME280;8375;33.594;-117.718;2023-04-07T05:23:11;100396.34;;;13.24;43.68
16525;BME280;8375;33.594;-117.718;2023-04-07T05:25:40;100395.75;;;13.20;39.65
16525;BME280;8375;33.594;-117.718;2023-04-07T05:28:10;100402.84;;;13.09;39.64
16525;BME280;8375;33.594;-117.718;2023-04-07T05:30:39;100406.94;;;13.01;39.48
16525;BME280;8375;33.594;-117.718;2023-04-07T05:33:07;100401.53;;;12.93;39.72
16525;BME280;8375;33.594;-117.718;2023-04-07T05:35:36;100396.44;;;12.91;40.33
16525;BME280;8375;33.594;-117.718;2023-04-07T05:38:05;100389.91;;;12.97;41.74
16525;BME280;8375;33.594;-117.718;2023-04-07T05:40:34;100391.66;;;12.97;39.88
16525;BME280;8375;33.594;-117.718;2023-04-07T05:43:02;100395.03;;;12.87;41.03
16525;BME280;8375;33.594;-117.718;2023-04-07T05:45:32;100400.91;;;12.80;40.34
16525;BME280;8375;33.594;-117.718;2023-04-07T05:48:01;100396.22;;;12.73;40.02
16525;BME280;8375;33.594;-117.718;2023-04-07T05:50:30;100397.16;;;12.72;40.53
16525;BME280;8375;33.594;-117.718;2023-04-07T05:52:59;100394.47;;;12.62;39.73
16525;BME280;8375;33.594;-117.718;2023-04-07T05:55:27;100398.19;;;12.60;41.63
16525;BME280;8375;33.594;-117.718;2023-04-07T05:57:56;100388.97;;;12.56;41.69
16525;BME280;8375;33.594;-117.718;2023-04-07T06:00:25;100386.03;;;12.49;40.65
16525;BME280;8375;33.594;-117.718;2023-04-07T06:02:56;100393.13;;;12.47;40.21
16525;BME280;8375;33.594;-117.718;2023-04-07T06:05:24;100392.63;;;12.53;42.55
16525;BME280;8375;33.594;-117.718;2023-04-07T06:07:53;100391.88;;;12.41;40.93
16525;BME280;8375;33.594;-117.718;2023-04-07T06:11:27;100394.78;;;12.27;41.66
16525;BME280;8375;33.594;-117.718;2023-04-07T06:13:38;100386.06;;;12.16;41.49
16525;BME280;8375;33.594;-117.718;2023-04-07T06:16:07;100386.53;;;12.10;41.30
16525;BME280;8375;33.594;-117.718;2023-04-07T06:18:38;100384.50;;;12.14;43.45
16525;BME280;8375;33.594;-117.718;2023-04-07T06:21:06;100381.00;;;12.03;41.92
16525;BME280;8375;33.594;-117.718;2023-04-07T06:23:35;100374.59;;;11.96;42.45
16525;BME280;8375;33.594;-117.718;2023-04-07T06:26:04;100377.00;;;11.88;43.46
16525;BME280;8375;33.594;-117.718;2023-04-07T06:28:32;100379.84;;;11.85;44.08
16525;BME280;8375;33.594;-117.718;2023-04-07T06:31:01;100366.13;;;11.83;44.24
16525;BME280;8375;33.594;-117.718;2023-04-07T06:33:30;100370.88;;;11.78;43.74
16525;BME280;8375;33.594;-117.718;2023-04-07T06:36:00;100371.94;;;11.75;43.74
16525;BME280;8375;33.594;-117.718;2023-04-07T06:38:29;100367.09;;;11.70;44.19
16525;BME280;8375;33.594;-117.718;2023-04-07T06:40:58;100368.53;;;11.63;44.83
16525;BME280;8375;33.594;-117.718;2023-04-07T06:43:26;100367.97;;;11.59;44.81
16525;BME280;8375;33.594;-117.718;2023-04-07T06:45:55;100363.56;;;11.60;45.66
16525;BME280;8375;33.594;-117.718;2023-04-07T06:48:24;100366.88;;;11.51;45.26
16525;BME280;8375;33.594;-117.718;2023-04-07T06:50:52;100358.53;;;11.47;46.14
16525;BME280;8375;33.594;-117.718;2023-04-07T06:53:23;100364.91;;;11.43;45.95
16525;BME280;8375;33.594;-117.718;2023-04-07T06:56:01;100360.66;;;11.42;45.92
16525;BME280;8375;33.594;-117.718;2023-04-07T06:58:30;100366.78;;;11.41;45.80
16525;BME280;8375;33.594;-117.718;2023-04-07T07:00:59;100367.97;;;11.37;45.87
16525;BME280;8375;33.594;-117.718;2023-04-07T07:03:28;100357.47;;;11.27;46.30
16525;BME280;8375;33.594;-117.718;2023-04-07T07:05:57;100363.72;;;11.36;48.18
16525;BME280;8375;33.594;-117.718;2023-04-07T07:08:28;100361.38;;;11.33;46.85
16525;BME280;8375;33.594;-117.718;2023-04-07T07:10:57;100361.38;;;11.33;48.19
16525;BME280;8375;33.594;-117.718;2023-04-07T07:13:26;100370.69;;;11.35;46.88
16525;BME280;8375;33.594;-117.718;2023-04-07T07:15:55;100368.22;;;11.22;45.80
16525;BME280;8375;33.594;-117.718;2023-04-07T07:18:24;100364.69;;;11.12;45.53
16525;BME280;8375;33.594;-117.718;2023-04-07T07:21:12;100364.53;;;11.02;47.31
16525;BME280;8375;33.594;-117.718;2023-04-07T07:24:01;100375.28;;;10.97;47.08
16525;BME280;8375;33.594;-117.718;2023-04-07T07:26:30;100376.69;;;10.90;46.82
16525;BME280;8375;33.594;-117.718;2023-04-07T07:28:58;100374.91;;;10.91;47.62
16525;BME280;8375;33.594;-117.718;2023-04-07T07:31:27;100376.44;;;10.82;47.93
16525;BME280;8375;33.594;-117.718;2023-04-07T07:33:56;100375.25;;;10.75;47.90
16525;BME280;8375;33.594;-117.718;2023-04-07T07:36:25;100380.91;;;10.68;48.15
16525;BME280;8375;33.594;-117.718;2023-04-07T07:38:54;100372.63;;;10.63;48.17
16525;BME280;8375;33.594;-117.718;2023-04-07T07:41:24;100374.50;;;10.61;48.84
16525;BME280;8375;33.594;-117.718;2023-04-07T07:43:53;100380.97;;;10.55;50.27
16525;BME280;8375;33.594;-117.718;2023-04-07T07:46:22;100371.78;;;10.63;49.67
16525;BME280;8375;33.594;-117.718;2023-04-07T07:48:52;100374.00;;;10.56;50.02
16525;BME280;8375;33.594;-117.718;2023-04-07T07:51:21;100372.56;;;10.52;50.71
16525;BME280;8375;33.594;-117.718;2023-04-07T07:53:50;100377.41;;;10.45;50.37
16525;BME280;8375;33.594;-117.718;2023-04-07T07:56:19;100367.34;;;10.40;50.47
16525;BME280;8375;33.594;-117.718;2023-04-07T07:58:49;100370.34;;;10.34;51.08
16525;BME280;8375;33.594;-117.718;2023-04-07T08:01:18;100372.22;;;10.32;51.87
16525;BME280;8375;33.594;-117.718;2023-04-07T08:03:47;100364.81;;;10.27;51.62
16525;BME280;8375;33.594;-117.718;2023-04-07T08:06:15;100367.72;;;10.23;51.05
16525;BME280;8375;33.594;-117.718;2023-04-07T08:08:44;100367.28;;;10.29;52.84
16525;BME280;8375;33.594;-117.718;2023-04-07T08:11:13;100367.28;;;10.29;52.77
16525;BME280;8375;33.594;-117.718;2023-04-07T08:13:42;100365.97;;;10.23;52.59
16525;BME280;8375;33.594;-117.718;2023-04-07T08:16:13;100364.41;;;10.21;52.54
16525;BME280;8375;33.594;-117.718;2023-04-07T08:18:42;100365.34;;;10.20;53.98
16525;BME280;8375;33.594;-117.718;2023-04-07T08:21:10;100364.75;;;10.16;52.55
16525;BME280;8375;33.594;-117.718;2023-04-07T08:23:39;100362.75;;;10.20;52.82
16525;BME280;8375;33.594;-117.718;2023-04-07T08:26:08;100364.75;;;10.16;52.25
16525;BME280;8375;33.594;-117.718;2023-04-07T08:28:36;100360.59;;;10.13;52.79
16525;BME280;8375;33.594;-117.718;2023-04-07T08:31:05;100360.25;;;10.07;52.74
16525;BME280;8375;33.594;-117.718;2023-04-07T08:33:36;100358.09;;;10.01;52.85
16525;BME280;8375;33.594;-117.718;2023-04-07T08:36:05;100355.00;;;9.95;52.50
16525;BME280;8375;33.594;-117.718;2023-04-07T08:38:34;100363.06;;;10.04;54.41
16525;BME280;8375;33.594;-117.718;2023-04-07T08:41:06;100360.47;;;10.04;52.52
16525;BME280;8375;33.594;-117.718;2023-04-07T08:43:35;100358.63;;;10.17;55.44
16525;BME280;8375;33.594;-117.718;2023-04-07T08:46:07;100358.06;;;10.25;56.92
16525;BME280;8375;33.594;-117.718;2023-04-07T08:48:39;100361.66;;;10.11;54.89
16525;BME280;8375;33.594;-117.718;2023-04-07T08:51:13;100361.94;;;9.95;54.65
16525;BME280;8375;33.594;-117.718;2023-04-07T08:53:48;100359.50;;;9.80;54.31
16525;BME280;8375;33.594;-117.718;2023-04-07T08:56:17;100356.53;;;9.74;54.11
16525;BME280;8375;33.594;-117.718;2023-04-07T08:58:47;100355.88;;;9.83;57.12
16525;BME280;8375;33.594;-117.718;2023-04-07T09:01:17;100358.75;;;9.91;58.30
16525;BME280;8375;33.594;-117.718;2023-04-07T09:03:49;100357.19;;;9.89;57.69
16525;BME280;8375;33.594;-117.718;2023-04-07T09:06:18;100360.16;;;9.71;56.54
16525;BME280;8375;33.594;-117.718;2023-04-07T09:08:47;100353.75;;;9.64;56.88
16525;BME280;8375;33.594;-117.718;2023-04-07T09:17:28;100347.91;;;9.36;58.05
16525;BME280;8375;33.594;-117.718;2023-04-07T09:19:59;100343.34;;;9.27;57.16
16525;BME280;8375;33.594;-117.718;2023-04-07T09:22:38;100349.13;;;9.43;59.93
16525;BME280;8375;33.594;-117.718;2023-04-07T09:25:13;100348.19;;;9.44;58.81
16525;BME280;8375;33.594;-117.718;2023-04-07T09:27:54;100342.94;;;9.33;59.16
16525;BME280;8375;33.594;-117.718;2023-04-07T09:30:23;100345.00;;;9.28;59.73
16525;BME280;8375;33.594;-117.718;2023-04-07T09:32:51;100339.03;;;9.14;59.29
16525;BME280;8375;33.594;-117.718;2023-04-07T09:35:22;100331.59;;;9.09;59.61
16525;BME280;8375;33.594;-117.718;2023-04-07T09:38:03;100332.59;;;9.20;62.25
16525;BME280;8375;33.594;-117.718;2023-04-07T09:40:32;100332.38;;;9.10;59.99
16525;BME280;8375;33.594;-117.718;2023-04-07T09:43:03;100330.13;;;9.05;59.88
16525;BME280;8375;33.594;-117.718;2023-04-07T09:45:32;100328.34;;;9.06;61.17
16525;BME280;8375;33.594;-117.718;2023-04-07T09:48:05;100330.84;;;9.07;60.09
16525;BME280;8375;33.594;-117.718;2023-04-07T09:50:37;100334.59;;;9.03;59.83
16525;BME280;8375;33.594;-117.718;2023-04-07T09:53:06;100339.22;;;9.11;61.12
16525;BME280;8375;33.594;-117.718;2023-04-07T09:55:36;100348.97;;;9.20;61.32
16525;BME280;8375;33.594;-117.718;2023-04-07T09:58:07;100340.97;;;9.23;60.52
16525;BME280;8375;33.594;-117.718;2023-04-07T10:00:37;100340.25;;;9.21;58.82
16525;BME280;8375;33.594;-117.718;2023-04-07T10:03:06;100329.16;;;9.32;61.12
16525;BME280;8375;33.594;-117.718;2023-04-07T10:05:38;100334.34;;;9.32;61.53
16525;BME280;8375;33.594;-117.718;2023-04-07T10:08:08;100329.97;;;9.33;61.76
16525;BME280;8375;33.594;-117.718;2023-04-07T10:10:40;100333.22;;;9.23;60.78
16525;BME280;8375;33.594;-117.718;2023-04-07T10:13:10;100330.31;;;9.15;60.35
16525;BME280;8375;33.594;-117.718;2023-04-07T10:15:39;100335.28;;;9.18;61.17
16525;BME280;8375;33.594;-117.718;2023-04-07T10:18:08;100338.38;;;9.23;60.29
16525;BME280;8375;33.594;-117.718;2023-04-07T10:20:39;100336.00;;;9.20;59.92
16525;BME280;8375;33.594;-117.718;2023-04-07T10:23:17;100348.75;;;9.23;61.31
16525;BME280;8375;33.594;-117.718;2023-04-07T10:25:47;100339.44;;;9.21;61.28
16525;BME280;8375;33.594;-117.718;2023-04-07T10:28:18;100338.69;;;9.32;63.02
16525;BME280;8375;33.594;-117.718;2023-04-07T10:30:49;100331.56;;;9.22;61.25
16525;BME280;8375;33.594;-117.718;2023-04-07T10:33:44;100326.38;;;9.22;61.17
16525;BME280;8375;33.594;-117.718;2023-04-07T10:36:16;100327.09;;;9.24;63.37
16525;BME280;8375;33.594;-117.718;2023-04-07T10:39:22;100324.19;;;9.29;64.12
16525;BME280;8375;33.594;-117.718;2023-04-07T10:41:51;100327.09;;;9.24;63.23
16525;BME280;8375;33.594;-117.718;2023-04-07T10:44:44;100332.19;;;9.13;63.34
16525;BME280;8375;33.594;-117.718;2023-04-07T10:47:13;100328.88;;;9.11;64.53
16525;BME280;8375;33.594;-117.718;2023-04-07T10:50:16;100322.97;;;9.09;64.65
16525;BME280;8375;33.594;-117.718;2023-04-07T10:52:47;100325.38;;;8.99;63.93
16525;BME280;8375;33.594;-117.718;2023-04-07T10:55:31;100319.34;;;8.99;64.41
16525;BME280;8375;33.594;-117.718;2023-04-07T10:58:19;100319.06;;;9.03;64.30
16525;BME280;8375;33.594;-117.718;2023-04-07T11:01:16;100315.41;;;9.06;64.31
16525;BME280;8375;33.594;-117.718;2023-04-07T11:03:57;100318.94;;;9.05;64.80
16525;BME280;8375;33.594;-117.718;2023-04-07T11:06:26;100325.03;;;9.17;65.53
16525;BME280;8375;33.594;-117.718;2023-04-07T11:08:57;100330.22;;;9.17;64.40
16525;BME280;8375;33.594;-117.718;2023-04-07T11:11:36;100325.56;;;9.22;62.97
16525;BME280;8375;33.594;-117.718;2023-04-07T11:14:05;100327.81;;;9.27;61.50
16525;BME280;8375;33.594;-117.718;2023-04-07T11:16:41;100327.91;;;9.38;63.87
16525;BME280;8375;33.594;-117.718;2023-04-07T11:19:11;100329.66;;;9.37;62.02
16525;BME280;8375;33.594;-117.718;2023-04-07T11:21:39;100345.94;;;9.39;61.67
16525;BME280;8375;33.594;-117.718;2023-04-07T11:24:10;100352.88;;;9.39;60.75
16525;BME280;8375;33.594;-117.718;2023-04-07T11:26:58;100352.88;;;9.39;60.50
16525;BME280;8375;33.594;-117.718;2023-04-07T11:29:28;100356.03;;;9.56;61.72
16525;BME280;8375;33.594;-117.718;2023-04-07T11:31:58;100352.84;;;9.52;61.73
16525;BME280;8375;33.594;-117.718;2023-04-07T11:34:29;100349.50;;;9.63;64.50
16525;BME280;8375;33.594;-117.718;2023-04-07T11:36:59;100346.47;;;9.69;66.50
16525;BME280;8375;33.594;-117.718;2023-04-07T11:39:52;100337.25;;;9.65;65.57
16525;BME280;8375;33.594;-117.718;2023-04-07T11:42:31;100334.09;;;9.48;65.24
16525;BME280;8375;33.594;-117.718;2023-04-07T11:45:00;100319.69;;;9.44;65.09
16525;BME280;8375;33.594;-117.718;2023-04-07T11:47:36;100318.88;;;9.31;65.45
16525;BME280;8375;33.594;-117.718;2023-04-07T11:50:06;100322.13;;;9.21;65.48
16525;BME280;8375;33.594;-117.718;2023-04-07T11:52:41;100316.00;;;9.22;67.73
16525;BME280;8375;33.594;-117.718;2023-04-07T11:55:18;100317.97;;;9.32;68.43
16525;BME280;8375;33.594;-117.718;2023-04-07T11:57:47;100320.13;;;9.38;67.13
16525;BME280;8375;33.594;-117.718;2023-04-07T12:00:17;100323.66;;;9.37;66.44
16525;BME280;8375;33.594;-117.718;2023-04-07T12:02:46;100330.47;;;9.38;65.12
16525;BME280;8375;33.594;-117.718;2023-04-07T12:05:15;100328.66;;;9.27;64.79
16525;BME280;8375;33.594;-117.718;2023-04-07T12:07:52;100327.81;;;9.27;65.47
16525;BME280;8375;33.594;-117.718;2023-04-07T12:10:24;100338.47;;;9.35;65.20
16525;BME280;8375;33.594;-117.718;2023-04-07T12:12:53;100345.00;;;9.41;65.51
16525;BME280;8375;33.594;-117.718;2023-04-07T12:15:21;100346.03;;;9.38;65.50
16525;BME280;8375;33.594;-117.718;2023-04-07T12:17:50;100348.31;;;9.43;66.18
16525;BME280;8375;33.594;-117.718;2023-04-07T12:20:19;100333.59;;;9.43;65.12
16525;BME280;8375;33.594;-117.718;2023-04-07T12:22:47;100332.13;;;9.39;64.82
16525;BME280;8375;33.594;-117.718;2023-04-07T12:25:16;100336.09;;;9.32;63.93
16525;BME280;8375;33.594;-117.718;2023-04-07T12:27:46;100346.97;;;9.37;65.16
16525;BME280;8375;33.594;-117.718;2023-04-07T12:30:15;100344.25;;;9.51;66.44
16525;BME280;8375;33.594;-117.718;2023-04-07T12:32:43;100331.25;;;9.64;65.69
16525;BME280;8375;33.594;-117.718;2023-04-07T12:35:12;100335.09;;;9.59;64.82
16525;BME280;8375;33.594;-117.718;2023-04-07T12:37:41;100339.78;;;9.53;65.53
16525;BME280;8375;33.594;-117.718;2023-04-07T12:40:11;100348.50;;;9.52;66.60
16525;BME280;8375;33.594;-117.718;2023-04-07T12:42:41;100345.59;;;9.44;65.27
16525;BME280;8375;33.594;-117.718;2023-04-07T12:45:11;100349.13;;;9.56;66.92
16525;BME280;8375;33.594;-117.718;2023-04-07T12:47:40;100349.97;;;9.44;65.20
16525;BME280;8375;33.594;-117.718;2023-04-07T12:50:09;100357.03;;;9.42;65.04
16525;BME280;8375;33.594;-117.718;2023-04-07T12:52:38;100352.69;;;9.29;64.92
16525;BME280;8375;33.594;-117.718;2023-04-07T12:55:07;100352.91;;;9.26;66.75
16525;BME280;8375;33.594;-117.718;2023-04-07T12:57:36;100354.22;;;9.32;66.49
16525;BME280;8375;33.594;-117.718;2023-04-07T13:00:06;100359.09;;;9.36;66.59